Time;durP1;ratioP1;P1;durP2;ratioP2;P2;SDS_P1;SDS_P2;PMS_P1;PMS_P2;Temp;Humidity;BMP_temperature;BMP_pressure;BME280_temperature;BME280_humidity;BME280_pressure;Samples;Min_cycle;Max_cycle;Signal;HPM_P1;HPM_P2
2022/03/14 00:01:49;;;;;;;10.63;5.55;;;4.20;40.40;;;;;;5007974;28;20044;-69
2022/03/14 00:04:15;;;;;;;11.30;5.68;;;4.20;40.60;;;;;;5015418;28;20030;-68
2022/03/14 00:06:43;;;;;;;11.43;5.87;;;4.20;40.50;;;;;;5007241;28;20107;-69
2022/03/14 00:09:09;;;;;;;11.18;5.90;;;4.20;40.40;;;;;;5010559;28;20021;-68
2022/03/14 00:11:38;;;;;;;11.88;5.75;;;4.10;40.50;;;;;;5007032;28;20044;-69
2022/03/14 00:14:08;;;;;;;9.63;5.63;;;4.10;40.70;;;;;;5014910;28;20036;-69
2022/03/14 00:16:43;;;;;;;13.25;5.30;;;4.10;40.80;;;;;;5012064;28;20049;-69
2022/03/14 00:19:09;;;;;;;14.23;5.65;;;4.10;40.90;;;;;;5009221;28;20022;-68
2022/03/14 00:21:38;;;;;;;10.60;5.60;;;4.00;41.60;;;;;;5003635;28;20024;-68
2022/03/14 00:24:06;;;;;;;8.43;5.75;;;4.00;40.80;;;;;;5008573;28;20066;-68
2022/03/14 00:26:33;;;;;;;10.60;5.35;;;4.00;41.10;;;;;;5013717;28;20056;-68
2022/03/14 00:28:58;;;;;;;14.32;5.75;;;4.00;41.00;;;;;;5010618;28;20022;-68
2022/03/14 00:31:24;;;;;;;9.87;5.20;;;3.90;41.00;;;;;;5003882;28;20025;-68
2022/03/14 00:33:50;;;;;;;16.10;6.10;;;3.80;41.00;;;;;;5006110;28;20024;-68
2022/03/14 00:36:18;;;;;;;9.15;5.40;;;3.90;41.10;;;;;;5008685;28;20025;-69
2022/03/14 00:38:43;;;;;;;10.35;6.03;;;3.90;40.90;;;;;;5001531;28;20646;-68
2022/03/14 00:41:09;;;;;;;13.33;5.70;;;3.90;40.90;;;;;;5009921;28;20029;-69
2022/03/14 00:43:36;;;;;;;10.10;5.37;;;3.80;41.10;;;;;;5004240;28;20025;-69
2022/03/14 00:46:02;;;;;;;9.05;5.57;;;3.80;41.20;;;;;;5016976;28;20095;-68
2022/03/14 00:48:28;;;;;;;10.35;5.35;;;3.80;41.20;;;;;;5013264;28;20029;-68
2022/03/14 00:50:54;;;;;;;9.17;5.40;;;3.80;42.00;;;;;;5010560;28;20540;-69
2022/03/14 00:53:20;;;;;;;10.02;5.20;;;3.70;41.30;;;;;;5010659;28;20014;-68
2022/03/14 00:55:46;;;;;;;8.40;4.80;;;3.70;41.40;;;;;;5011465;28;20048;-69
2022/03/14 00:58:12;;;;;;;9.63;5.50;;;3.70;41.30;;;;;;5010420;28;20026;-68
2022/03/14 01:00:38;;;;;;;10.17;5.47;;;3.70;41.60;;;;;;5006717;28;20017;-68
2022/03/14 01:03:04;;;;;;;9.43;5.10;;;3.60;41.50;;;;;;5008732;28;20491;-68
2022/03/14 01:05:30;;;;;;;8.53;5.43;;;3.60;41.60;;;;;;5007723;28;20057;-69
2022/03/14 01:07:56;;;;;;;11.30;5.43;;;3.60;41.60;;;;;;5002507;28;20044;-69
2022/03/14 01:10:23;;;;;;;10.27;5.27;;;3.60;41.70;;;;;;5004990;28;20022;-68
2022/03/14 01:12:49;;;;;;;9.63;5.43;;;3.60;41.60;;;;;;5005470;28;20017;-68
2022/03/14 01:15:15;;;;;;;11.27;5.78;;;3.60;41.60;;;;;;5008951;28;20181;-68
2022/03/14 01:17:42;;;;;;;11.20;5.55;;;3.60;41.60;;;;;;5006961;28;20109;-68
2022/03/14 01:20:10;;;;;;;12.23;5.28;;;3.60;41.70;;;;;;5012299;28;20036;-68
2022/03/14 01:22:38;;;;;;;9.13;4.93;;;3.50;41.80;;;;;;5008657;28;20033;-69
2022/03/14 01:25:04;;;;;;;10.27;5.13;;;3.50;41.80;;;;;;5010138;28;20036;-68
2022/03/14 01:27:30;;;;;;;10.35;5.53;;;3.50;42.00;;;;;;5010371;28;20034;-69
2022/03/14 01:29:56;;;;;;;9.63;4.87;;;3.40;42.10;;;;;;5008247;28;20029;-68
2022/03/14 01:32:22;;;;;;;7.30;4.87;;;3.40;42.00;;;;;;5012267;28;20033;-68
2022/03/14 01:34:48;;;;;;;10.88;5.70;;;3.40;42.20;;;;;;5006491;28;20022;-68
2022/03/14 01:37:15;;;;;;;9.30;4.97;;;3.40;42.40;;;;;;5005414;28;20080;-69
2022/03/14 01:39:40;;;;;;;9.82;5.57;;;3.30;42.30;;;;;;5007455;28;20026;-68
2022/03/14 01:42:06;;;;;;;9.23;5.00;;;3.30;42.60;;;;;;5007349;28;20864;-68
2022/03/14 01:44:32;;;;;;;9.90;5.65;;;3.30;42.80;;;;;;5013712;28;20045;-69
2022/03/14 01:47:00;;;;;;;8.67;5.30;;;3.30;42.90;;;;;;4999866;28;21381;-68
2022/03/14 01:49:26;;;;;;;9.43;5.35;;;3.30;42.80;;;;;;5008731;28;21104;-68
2022/03/14 01:51:54;;;;;;;8.60;5.37;;;3.20;43.20;;;;;;5002018;28;20117;-68
2022/03/14 01:54:20;;;;;;;9.35;5.10;;;3.20;43.00;;;;;;5007967;28;20022;-69
2022/03/14 01:56:46;;;;;;;9.83;6.00;;;3.20;43.40;;;;;;5006836;28;20025;-69
2022/03/14 01:59:13;;;;;;;9.25;5.50;;;3.20;43.20;;;;;;5011238;28;20022;-68
2022/03/14 02:01:40;;;;;;;9.73;4.88;;;3.10;43.20;;;;;;5002617;28;20071;-68
2022/03/14 02:04:08;;;;;;;8.68;4.90;;;3.10;43.40;;;;;;5006341;28;20045;-68
2022/03/14 02:06:35;;;;;;;9.95;5.50;;;3.10;43.70;;;;;;5004054;28;20746;-68
2022/03/14 02:09:02;;;;;;;10.13;5.13;;;3.00;43.40;;;;;;5004443;28;20395;-68
2022/03/14 02:11:28;;;;;;;;;;;3.00;43.70;;;;;;5004109;28;20101;-69
2022/03/14 02:13:53;;;;;;;10.00;5.50;;;3.00;43.90;;;;;;5006550;28;19909;-68
2022/03/14 02:16:19;;;;;;;9.97;5.57;;;2.90;43.50;;;;;;5010552;28;20100;-68
2022/03/14 02:18:45;;;;;;;10.93;5.27;;;2.90;43.70;;;;;;5002261;28;20021;-69
2022/03/14 02:21:13;;;;;;;11.90;5.50;;;2.90;43.80;;;;;;5007213;28;20029;-69
2022/03/14 02:23:39;;;;;;;10.10;4.80;;;2.80;43.60;;;;;;5006929;28;20060;-68
2022/03/14 02:26:06;;;;;;;9.27;5.13;;;2.80;43.80;;;;;;5010784;28;20026;-68
2022/03/14 02:28:32;;;;;;;8.10;5.30;;;2.80;43.90;;;;;;5005669;28;20356;-68
2022/03/14 02:30:58;;;;;;;10.63;5.50;;;2.80;44.00;;;;;;5000562;28;20026;-68
2022/03/14 02:33:24;;;;;;;8.73;4.80;;;2.70;44.10;;;;;;5010562;28;20036;-69
2022/03/14 02:35:50;;;;;;;9.38;4.75;;;2.70;44.20;;;;;;5000383;28;20025;-69
2022/03/14 02:38:16;;;;;;;8.53;4.70;;;2.70;44.50;;;;;;5004316;28;20035;-68
2022/03/14 02:40:46;;;;;;;11.35;5.53;;;2.70;44.60;;;;;;5004926;28;20116;-68
2022/03/14 02:43:15;;;;;;;12.77;5.18;;;2.60;44.60;;;;;;5009038;28;20082;-68
2022/03/14 02:45:43;;;;;;;11.45;5.72;;;2.60;44.70;;;;;;5008602;28;20033;-68
2022/03/14 02:48:10;;;;;;;9.02;5.07;;;2.60;45.00;;;;;;5009443;28;20119;-68
2022/03/14 02:50:38;;;;;;;10.43;5.70;;;2.60;45.00;;;;;;5013234;28;20021;-68
2022/03/14 02:53:04;;;;;;;10.60;5.22;;;2.70;45.20;;;;;;5013991;28;20059;-68
2022/03/14 02:55:29;;;;;;;7.70;5.00;;;2.70;45.00;;;;;;5008463;28;20037;-68
2022/03/14 02:57:58;;;;;;;7.90;4.50;;;2.60;45.10;;;;;;5002000;28;20104;-68
2022/03/14 03:00:24;;;;;;;10.63;5.38;;;2.60;45.30;;;;;;5002777;28;21503;-69
2022/03/14 03:02:51;;;;;;;10.57;5.47;;;2.60;45.40;;;;;;5000759;28;20037;-69
2022/03/14 03:05:17;;;;;;;9.63;5.38;;;2.50;45.30;;;;;;5004842;28;20037;-68
2022/03/14 03:07:43;;;;;;;8.87;4.87;;;2.50;45.30;;;;;;5004089;28;20029;-68
2022/03/14 03:10:10;;;;;;;11.40;5.57;;;2.50;45.40;;;;;;5005023;28;20139;-69
2022/03/14 03:12:40;;;;;;;11.80;6.20;;;2.40;45.50;;;;;;5002884;28;20052;-68
2022/03/14 03:15:07;;;;;;;9.77;5.30;;;2.40;45.60;;;;;;5012154;28;20017;-68
2022/03/14 03:17:33;;;;;;;10.13;5.38;;;2.50;45.50;;;;;;5008210;28;20594;-68
2022/03/14 03:19:59;;;;;;;8.80;4.53;;;2.40;45.40;;;;;;5003209;28;20052;-69
2022/03/14 03:22:27;;;;;;;8.80;5.15;;;2.40;45.60;;;;;;5003933;28;20064;-68
2022/03/14 03:24:53;;;;;;;6.70;4.25;;;2.30;45.80;;;;;;5004035;28;20044;-69
2022/03/14 03:27:19;;;;;;;8.15;5.30;;;2.30;46.10;;;;;;5010097;28;20021;-69
2022/03/14 03:29:45;;;;;;;8.47;4.97;;;2.20;46.40;;;;;;5002296;28;20026;-69
2022/03/14 03:32:10;;;;;;;10.13;5.23;;;2.30;46.40;;;;;;5009355;28;20625;-68
2022/03/14 03:34:36;;;;;;;7.43;5.00;;;2.20;46.60;;;;;;5008307;28;20029;-69
2022/03/14 03:37:02;;;;;;;9.93;5.40;;;2.20;46.70;;;;;;5008195;28;20030;-69
2022/03/14 03:39:29;;;;;;;8.10;4.90;;;2.10;46.50;;;;;;5007366;28;20026;-69
2022/03/14 03:41:54;;;;;;;11.93;5.70;;;2.10;47.10;;;;;;5003472;28;20101;-69
2022/03/14 03:44:20;;;;;;;9.05;5.10;;;2.10;47.20;;;;;;5009472;28;20110;-68
2022/03/14 03:46:46;;;;;;;8.77;4.83;;;2.10;47.10;;;;;;5001261;28;20018;-69
2022/03/14 03:49:12;;;;;;;10.15;5.18;;;2.10;47.10;;;;;;5004152;28;20566;-69
2022/03/14 03:51:37;;;;;;;8.90;4.90;;;2.10;47.50;;;;;;5008689;28;20127;-69
2022/03/14 03:54:03;;;;;;;9.43;4.87;;;2.10;47.60;;;;;;5001727;28;20067;-68
2022/03/14 03:56:30;;;;;;;10.03;5.73;;;2.10;47.50;;;;;;5004381;28;20044;-68
2022/03/14 03:58:55;;;;;;;8.95;5.45;;;2.10;47.70;;;;;;5002402;28;20806;-68
2022/03/14 04:01:23;;;;;;;9.50;5.33;;;2.10;47.80;;;;;;5009239;28;20034;-69
2022/03/14 04:03:54;;;;;;;9.30;4.85;;;2.10;48.00;;;;;;5000648;28;20076;-69
2022/03/14 04:06:27;;;;;;;11.25;4.82;;;2.10;48.00;;;;;;5003499;28;20029;-68
2022/03/14 04:08:54;;;;;;;10.77;5.05;;;2.10;48.10;;;;;;5004253;28;20022;-69
2022/03/14 04:11:20;;;;;;;9.13;5.43;;;2.00;48.40;;;;;;5008410;28;20021;-69
2022/03/14 04:13:47;;;;;;;8.40;4.80;;;2.00;48.40;;;;;;5008412;28;20017;-69
2022/03/14 04:16:17;;;;;;;9.60;5.10;;;2.00;48.40;;;;;;5008928;28;20030;-69
2022/03/14 04:18:43;;;;;;;9.43;5.20;;;2.00;48.30;;;;;;5002534;28;20068;-69
2022/03/14 04:21:09;;;;;;;8.43;4.80;;;2.00;48.30;;;;;;5006462;28;20468;-68
2022/03/14 04:23:34;;;;;;;8.53;5.13;;;2.00;48.60;;;;;;5006747;28;20443;-68
2022/03/14 04:26:00;;;;;;;8.77;5.07;;;1.90;48.40;;;;;;5005941;28;21308;-69
2022/03/14 04:28:26;;;;;;;10.30;5.37;;;1.90;48.50;;;;;;5003485;28;20155;-68
2022/03/14 04:30:52;;;;;;;9.43;4.83;;;2.00;48.70;;;;;;5001584;28;20345;-68
2022/03/14 04:33:17;;;;;;;9.77;5.20;;;1.90;48.20;;;;;;5005017;28;20049;-69
2022/03/14 04:35:43;;;;;;;7.90;4.93;;;1.80;48.40;;;;;;5008660;28;20387;-68
2022/03/14 04:38:09;;;;;;;9.27;5.17;;;1.80;48.60;;;;;;5007120;28;20487;-68
2022/03/14 04:40:35;;;;;;;9.43;5.77;;;1.80;48.40;;;;;;5003191;28;20376;-68
2022/03/14 04:43:07;;;;;;;9.55;4.95;;;1.80;48.50;;;;;;5005002;28;20164;-68
2022/03/14 04:45:34;;;;;;;15.18;5.50;;;1.80;48.50;;;;;;5011982;28;20025;-69
2022/03/14 04:48:01;;;;;;;10.80;5.20;;;1.80;48.70;;;;;;5005124;28;20615;-69
2022/03/14 04:50:27;;;;;;;9.88;5.40;;;1.80;48.60;;;;;;5007780;28;20029;-68
2022/03/14 04:52:53;;;;;;;9.97;4.47;;;1.80;48.80;;;;;;5012294;28;20026;-68
2022/03/14 04:55:18;;;;;;;10.17;5.90;;;1.80;49.00;;;;;;5012662;28;20026;-69
2022/03/14 04:57:44;;;;;;;9.67;5.47;;;1.80;49.20;;;;;;5004485;28;20025;-68
2022/03/14 05:00:10;;;;;;;9.13;5.03;;;1.80;49.60;;;;;;5010518;28;20033;-69
2022/03/14 05:02:37;;;;;;;10.00;5.70;;;1.70;49.60;;;;;;5012490;28;20032;-69
2022/03/14 05:05:04;;;;;;;10.68;5.40;;;1.80;49.60;;;;;;5005657;28;20033;-68
2022/03/14 05:07:30;;;;;;;12.27;5.90;;;1.70;49.70;;;;;;5008773;28;20041;-69
2022/03/14 05:09:55;;;;;;;11.50;5.95;;;1.70;49.80;;;;;;5005974;28;20044;-69
2022/03/14 05:12:21;;;;;;;8.50;5.10;;;1.70;50.10;;;;;;5004722;28;20882;-68
2022/03/14 05:14:50;;;;;;;8.97;5.67;;;1.70;50.20;;;;;;5006313;28;20352;-69
2022/03/14 05:17:17;;;;;;;11.20;5.43;;;1.60;50.40;;;;;;5010455;28;20042;-68
2022/03/14 05:19:43;;;;;;;13.50;5.82;;;1.70;50.50;;;;;;5008816;28;20127;-69
2022/03/14 05:22:08;;;;;;;9.93;5.33;;;1.80;50.60;;;;;;5012833;28;20443;-69
2022/03/14 05:24:35;;;;;;;11.13;5.23;;;2.00;50.30;;;;;;5013931;28;20509;-68
2022/03/14 05:27:01;;;;;;;10.23;5.72;;;2.30;50.00;;;;;;5006936;28;20034;-69
2022/03/14 05:29:27;;;;;;;9.33;5.57;;;2.70;48.80;;;;;;5004328;28;20028;-68
2022/03/14 05:31:53;;;;;;;9.63;5.60;;;3.20;48.00;;;;;;5003951;28;20048;-69
2022/03/14 05:34:19;;;;;;;11.40;5.47;;;3.70;47.30;;;;;;5008814;28;20632;-68
2022/03/14 05:36:45;;;;;;;11.65;6.28;;;4.00;46.40;;;;;;5005990;28;20033;-69
2022/03/14 05:39:10;;;;;;;9.87;6.30;;;4.10;46.40;;;;;;5011243;28;20378;-69
2022/03/14 05:41:36;;;;;;;12.93;5.93;;;4.10;45.70;;;;;;5013974;28;20362;-69
2022/03/14 05:44:02;;;;;;;11.37;6.00;;;3.80;46.00;;;;;;5006283;28;20103;-69
2022/03/14 05:46:28;;;;;;;14.38;6.90;;;3.90;46.10;;;;;;5013422;28;20024;-68
2022/03/14 05:48:54;;;;;;;10.43;6.23;;;4.40;46.00;;;;;;5004361;28;20034;-68
2022/03/14 05:51:20;;;;;;;9.37;6.13;;;4.90;44.50;;;;;;5012210;28;20101;-69
2022/03/14 05:53:45;;;;;;;9.50;6.40;;;5.60;45.30;;;;;;5008412;28;20517;-69
2022/03/14 05:56:11;;;;;;;10.30;6.17;;;5.50;43.70;;;;;;5009486;28;20021;-68
2022/03/14 05:58:37;;;;;;;9.77;6.13;;;6.00;42.60;;;;;;5012900;28;20096;-68
2022/03/14 06:01:02;;;;;;;10.47;6.27;;;6.50;42.20;;;;;;5002545;28;20072;-69
2022/03/14 06:03:28;;;;;;;11.13;6.20;;;6.00;42.30;;;;;;5006760;28;20021;-69
2022/03/14 06:05:54;;;;;;;10.13;6.20;;;6.80;42.30;;;;;;5009789;28;20030;-69
2022/03/14 06:08:19;;;;;;;9.83;6.73;;;7.50;40.80;;;;;;5010798;28;20137;-68
2022/03/14 06:10:46;;;;;;;8.80;6.00;;;8.10;40.00;;;;;;5000913;28;20014;-69
2022/03/14 06:13:15;;;;;;;10.05;6.30;;;8.00;40.10;;;;;;5011570;28;20590;-69
2022/03/14 06:15:47;;;;;;;9.32;6.25;;;8.50;39.80;;;;;;5003510;28;20046;-69
2022/03/14 06:18:13;;;;;;;10.23;6.30;;;8.70;39.40;;;;;;5003934;28;20022;-69
2022/03/14 06:20:39;;;;;;;12.20;6.82;;;9.20;38.60;;;;;;5008740;28;20563;-66
2022/03/14 06:23:04;;;;;;;9.70;6.27;;;9.30;37.70;;;;;;5001610;28;20092;-66
2022/03/14 06:25:30;;;;;;;11.57;6.40;;;9.20;39.40;;;;;;5011725;28;20037;-70
2022/03/14 06:27:56;;;;;;;9.10;6.20;;;8.90;38.80;;;;;;5003930;28;20033;-68
2022/03/14 06:30:22;;;;;;;10.10;6.10;;;9.00;39.20;;;;;;5014166;28;20788;-69
2022/03/14 06:32:49;;;;;;;10.87;7.17;;;10.50;38.20;;;;;;5012290;28;20029;-69
2022/03/14 06:35:17;;;;;;;10.73;6.78;;;11.40;36.20;;;;;;5006428;28;20269;-69
2022/03/14 06:37:44;;;;;;;12.35;6.85;;;11.00;35.90;;;;;;5008429;28;20043;-69
2022/03/14 06:40:10;;;;;;;9.85;7.00;;;11.80;36.00;;;;;;5007856;28;20103;-69
2022/03/14 06:42:41;;;;;;;14.10;7.38;;;12.20;35.80;;;;;;5005706;28;20095;-69
2022/03/14 06:45:11;;;;;;;9.65;7.00;;;12.10;35.70;;;;;;5003591;28;20029;-69
2022/03/14 06:47:38;;;;;;;9.20;6.43;;;11.30;35.80;;;;;;5004227;28;20531;-69
2022/03/14 06:50:10;;;;;;;10.55;7.30;;;11.50;36.50;;;;;;5005671;28;20021;-69
2022/03/14 06:52:37;;;;;;;11.07;6.55;;;12.50;35.60;;;;;;5011327;28;20022;-69
2022/03/14 06:55:05;;;;;;;9.88;5.93;;;12.80;35.20;;;;;;5007438;28;20030;-69
2022/03/14 06:57:32;;;;;;;11.23;6.28;;;13.00;35.20;;;;;;5009813;28;20088;-69
2022/03/14 06:59:59;;;;;;;17.15;7.88;;;13.80;34.30;;;;;;5003010;28;22027;-69
2022/03/14 07:02:28;;;;;;;10.55;6.93;;;13.60;34.40;;;;;;5011958;28;20734;-69
2022/03/14 07:04:55;;;;;;;8.75;6.57;;;13.20;34.20;;;;;;4999919;28;20023;-69
2022/03/14 07:07:21;;;;;;;11.00;7.28;;;11.70;36.20;;;;;;5003144;28;20420;-70
2022/03/14 07:09:47;;;;;;;11.90;6.90;;;11.80;36.80;;;;;;5004778;28;20083;-69
2022/03/14 07:12:13;;;;;;;9.73;6.28;;;11.90;37.00;;;;;;5009685;28;20026;-69
2022/03/14 07:14:39;;;;;;;9.93;6.90;;;12.60;36.70;;;;;;5006809;28;20097;-69
2022/03/14 07:17:05;;;;;;;12.13;6.22;;;13.20;36.50;;;;;;4999507;28;20454;-70
2022/03/14 07:19:31;;;;;;;11.15;7.35;;;14.00;36.30;;;;;;5011637;28;20033;-69
2022/03/14 07:21:57;;;;;;;10.03;6.07;;;14.10;34.80;;;;;;5000704;28;20034;-69
2022/03/14 07:24:22;;;;;;;11.43;7.23;;;13.10;36.10;;;;;;5011763;28;20060;-69
2022/03/14 07:26:50;;;;;;;10.05;6.88;;;11.60;37.10;;;;;;5012225;28;20101;-69
2022/03/14 07:29:15;;;;;;;10.95;6.95;;;11.30;38.70;;;;;;5006962;28;20626;-69
2022/03/14 07:31:42;;;;;;;9.33;6.43;;;12.10;38.20;;;;;;5005447;28;20079;-69
2022/03/14 07:34:08;;;;;;;10.50;6.07;;;12.10;38.30;;;;;;5003813;28;20064;-70
2022/03/14 07:36:34;;;;;;;11.48;7.00;;;12.60;37.60;;;;;;5009808;28;20025;-69
2022/03/14 07:39:01;;;;;;;11.07;7.30;;;13.70;36.90;;;;;;5001780;28;20082;-70
2022/03/14 07:41:27;;;;;;;10.77;6.70;;;14.10;35.90;;;;;;5003207;28;20061;-70
2022/03/14 07:43:53;;;;;;;11.05;6.65;;;15.10;35.50;;;;;;4999980;28;20499;-70
2022/03/14 07:46:18;;;;;;;9.63;6.45;;;16.50;34.20;;;;;;5004260;28;20029;-69
2022/03/14 07:48:44;;;;;;;10.00;6.85;;;14.90;34.90;;;;;;5004317;28;20018;-69
2022/03/14 07:51:10;;;;;;;9.13;6.38;;;15.50;35.20;;;;;;5007097;28;20036;-70
2022/03/14 07:53:35;;;;;;;9.00;6.25;;;16.00;34.70;;;;;;5011161;28;20024;-70
2022/03/14 07:56:01;;;;;;;11.18;6.72;;;16.40;34.30;;;;;;5006465;28;20133;-69
2022/03/14 07:58:27;;;;;;;10.55;6.88;;;14.90;34.90;;;;;;5009986;28;20033;-69
2022/03/14 08:00:53;;;;;;;8.02;6.38;;;14.70;35.80;;;;;;4998090;28;20048;-70
2022/03/14 08:03:21;;;;;;;12.32;7.00;;;14.90;36.00;;;;;;5006406;28;20033;-70
2022/03/14 08:05:48;;;;;;;9.43;6.28;;;13.70;37.10;;;;;;5000932;28;20034;-70
2022/03/14 08:08:17;;;;;;;10.18;6.43;;;14.50;36.50;;;;;;5002464;28;20018;-70
2022/03/14 08:10:42;;;;;;;10.00;6.47;;;15.60;35.60;;;;;;5007049;28;20017;-70
2022/03/14 08:13:08;;;;;;;8.90;6.57;;;15.40;36.00;;;;;;4999147;28;20014;-70
2022/03/14 08:15:38;;;;;;;9.45;6.43;;;16.50;34.70;;;;;;5011195;28;20017;-70
2022/03/14 08:18:07;;;;;;;13.30;7.03;;;16.80;33.90;;;;;;5004443;28;20467;-70
2022/03/14 08:20:34;;;;;;;10.38;7.00;;;16.60;33.70;;;;;;5008560;28;20026;-69
2022/03/14 08:23:00;;;;;;;;;;;15.40;35.10;;;;;;5004385;28;20175;-70
2022/03/14 08:25:26;;;;;;;11.07;6.50;;;14.20;36.50;;;;;;5013228;28;19921;-70
2022/03/14 08:27:52;;;;;;;12.40;7.07;;;14.70;37.20;;;;;;5006519;28;20359;-70
2022/03/14 08:30:21;;;;;;;9.15;6.35;;;15.40;36.50;;;;;;5013753;28;20028;-70
2022/03/14 08:32:47;;;;;;;9.60;6.40;;;16.30;34.90;;;;;;5009881;28;20561;-70
2022/03/14 08:35:17;;;;;;;;;;;16.20;34.30;;;;;;5008814;28;20025;-70
2022/03/14 08:37:45;;;;;;;9.77;6.45;;;15.40;34.80;;;;;;5008550;28;19946;-71
2022/03/14 08:40:13;;;;;;;10.27;6.65;;;16.20;35.40;;;;;;5004222;28;20014;-70
2022/03/14 08:42:42;;;;;;;9.27;6.80;;;16.50;34.80;;;;;;5010302;28;20022;-70
2022/03/14 08:45:08;;;;;;;8.77;7.00;;;16.90;33.70;;;;;;5007297;28;20045;-70
2022/03/14 08:47:34;;;;;;;;;;;16.00;34.10;;;;;;5009807;28;20014;-70
2022/03/14 08:50:02;;;;;;;8.98;6.72;;;15.40;35.60;;;;;;4998789;28;20429;-70
2022/03/14 08:52:29;;;;;;;10.55;6.93;;;15.80;35.60;;;;;;5013729;28;20021;-70
2022/03/14 08:54:55;;;;;;;8.10;6.75;;;16.90;34.50;;;;;;5007222;28;20332;-71
2022/03/14 08:57:21;;;;;;;8.55;6.32;;;16.90;34.30;;;;;;5011360;28;20172;-70
2022/03/14 08:59:46;;;;;;;10.05;7.30;;;17.80;33.40;;;;;;5009477;28;20497;-70
2022/03/14 09:02:12;;;;;;;9.27;7.05;;;18.30;32.50;;;;;;5012995;28;20075;-70
2022/03/14 09:04:38;;;;;;;10.40;6.93;;;17.10;33.80;;;;;;5012950;28;20518;-70
2022/03/14 09:07:05;;;;;;;9.63;6.47;;;16.80;34.40;;;;;;5004682;28;20069;-70
2022/03/14 09:09:31;;;;;;;8.43;6.40;;;16.40;34.50;;;;;;5011628;28;20712;-70
2022/03/14 09:11:58;;;;;;;9.52;7.00;;;15.20;35.70;;;;;;5002858;28;20096;-70
2022/03/14 09:14:24;;;;;;;11.13;6.15;;;14.50;36.70;;;;;;5006711;28;20546;-70
2022/03/14 09:16:50;;;;;;;11.07;7.15;;;14.80;36.90;;;;;;5010884;28;20037;-70
2022/03/14 09:19:16;;;;;;;9.88;6.93;;;15.70;35.80;;;;;;5006316;28;20021;-70
2022/03/14 09:21:42;;;;;;;10.75;6.03;;;16.00;35.60;;;;;;5007618;28;20080;-70
2022/03/14 09:24:07;;;;;;;10.77;6.88;;;16.00;35.30;;;;;;5007383;28;20059;-71
2022/03/14 09:26:35;;;;;;;8.32;5.95;;;16.50;35.60;;;;;;5011327;28;20022;-70
2022/03/14 09:29:02;;;;;;;8.85;6.60;;;17.70;34.10;;;;;;5007439;28;20057;-72
2022/03/14 09:31:27;;;;;;;7.75;6.18;;;17.60;34.00;;;;;;5011488;28;20129;-70
2022/03/14 09:33:53;;;;;;;11.38;7.13;;;18.30;33.10;;;;;;5010986;28;20033;-70
2022/03/14 09:36:19;;;;;;;8.75;6.75;;;18.60;32.80;;;;;;5003622;28;20022;-70
2022/03/14 09:38:45;;;;;;;11.02;7.00;;;17.80;33.20;;;;;;5007318;28;20026;-71
2022/03/14 09:41:15;;;;;;;9.60;6.82;;;18.50;32.90;;;;;;4998294;28;20191;-73
2022/03/14 09:43:44;;;;;;;11.63;6.72;;;19.30;32.60;;;;;;5008938;28;20013;-72
2022/03/14 09:46:11;;;;;;;7.53;6.72;;;19.30;31.70;;;;;;5008605;28;20021;-70
2022/03/14 09:48:41;;;;;;;8.23;6.32;;;19.00;32.00;;;;;;5003792;28;20082;-70
2022/03/14 09:51:07;;;;;;;8.50;6.80;;;19.90;31.50;;;;;;5004538;28;20014;-71
2022/03/14 09:53:35;;;;;;;10.57;7.07;;;18.90;31.70;;;;;;5009331;28;20804;-71
2022/03/14 09:56:01;;;;;;;12.32;7.05;;;18.10;32.50;;;;;;5007520;28;20074;-71
2022/03/14 09:58:27;;;;;;;9.05;6.85;;;18.40;33.10;;;;;;5007934;28;20539;-70
2022/03/14 10:00:59;;;;;;;;;;;18.80;32.30;;;;;;5005627;28;20084;-70
2022/03/14 10:03:24;;;;;;;9.15;6.18;;;19.60;32.30;;;;;;5006539;28;19939;-71
2022/03/14 10:05:50;;;;;;;9.73;6.65;;;20.50;30.90;;;;;;5006644;28;20026;-70
2022/03/14 10:08:16;;;;;;;9.73;7.13;;;19.50;31.00;;;;;;4998259;28;20022;-71
2022/03/14 10:10:43;;;;;;;8.25;6.35;;;19.80;31.30;;;;;;5005898;28;20425;-73
2022/03/14 10:13:10;;;;;;;7.95;6.45;;;20.40;31.10;;;;;;4999880;28;20109;-73
2022/03/14 10:15:40;;;;;;;12.35;7.10;;;20.60;30.70;;;;;;5011516;28;20057;-73
2022/03/14 10:18:14;;;;;;;8.35;6.40;;;19.80;31.50;;;;;;5004178;28;20057;-73
2022/03/14 10:21:02;;;;;;;15.63;6.93;;;20.30;31.10;;;;;;5008867;28;20026;-73
2022/03/14 10:23:44;;;;;;;9.10;6.75;;;20.50;30.90;;;;;;5003406;28;20059;-71
2022/03/14 10:26:16;;;;;;;9.43;6.55;;;20.70;31.00;;;;;;5004987;28;20024;-71
2022/03/14 10:28:45;;;;;;;7.85;6.70;;;21.30;30.10;;;;;;5008287;28;20021;-71
2022/03/14 10:31:11;;;;;;;11.80;7.05;;;21.50;30.20;;;;;;5006866;28;20056;-71
2022/03/14 10:33:37;;;;;;;;;;;22.30;30.00;;;;;;5004596;28;20583;-71
2022/03/14 10:36:03;;;;;;;11.27;6.85;;;22.10;29.40;;;;;;5001747;28;20422;-71
2022/03/14 10:38:28;;;;;;;;;;;22.00;29.80;;;;;;5006526;28;20033;-71
2022/03/14 10:40:58;;;;;;;12.75;7.05;;;22.40;29.70;;;;;;5005384;28;19913;-71
2022/03/14 10:43:32;;;;;;;9.50;7.32;;;21.90;30.00;;;;;;5003268;28;20036;-71
2022/03/14 10:46:00;;;;;;;10.88;7.50;;;23.00;30.60;;;;;;5009291;28;20042;-71
2022/03/14 10:48:52;;;;;;;11.20;7.05;;;22.60;29.50;;;;;;5007486;28;20021;-73
2022/03/14 10:51:18;;;;;;;8.63;7.18;;;21.90;29.90;;;;;;4996878;28;20045;-73
2022/03/14 10:53:44;;;;;;;;;;;21.60;30.50;;;;;;5005709;28;20025;-71
2022/03/14 10:56:10;;;;;;;10.93;6.60;;;20.60;30.80;;;;;;5004906;28;19940;-70
2022/03/14 10:58:36;;;;;;;9.50;7.38;;;20.50;31.40;;;;;;5009945;28;20147;-70
2022/03/14 11:01:05;;;;;;;7.97;6.90;;;20.20;31.20;;;;;;5001057;28;20777;-71
2022/03/14 11:03:41;;;;;;;9.73;7.13;;;19.90;30.80;;;;;;5012659;28;20148;-70
2022/03/14 11:06:09;;;;;;;9.60;6.80;;;19.00;32.50;;;;;;5006618;28;20071;-70
2022/03/14 11:08:37;;;;;;;11.00;6.90;;;18.30;34.10;;;;;;5004057;28;20026;-70
2022/03/14 11:11:10;;;;;;;10.77;6.55;;;18.00;34.30;;;;;;5010302;28;20025;-70
2022/03/14 11:13:44;;;;;;;9.18;6.68;;;18.00;34.90;;;;;;5011232;28;20018;-70
2022/03/14 11:16:21;;;;;;;15.38;8.13;;;18.00;34.80;;;;;;4999931;28;20443;-70
2022/03/14 11:18:47;;;;;;;10.13;7.35;;;18.00;34.70;;;;;;5006596;28;20057;-70
2022/03/14 11:21:14;;;;;;;10.48;7.50;;;17.60;35.00;;;;;;5001311;28;20030;-70
2022/03/14 11:23:45;;;;;;;10.18;7.43;;;17.30;35.50;;;;;;5008494;28;20651;-70
2022/03/14 11:26:11;;;;;;;13.80;7.28;;;17.30;35.80;;;;;;5007075;28;20117;-70
2022/03/14 11:28:39;;;;;;;9.35;6.45;;;17.00;36.10;;;;;;5011058;28;20028;-69
2022/03/14 11:31:05;;;;;;;12.32;7.43;;;16.10;37.00;;;;;;4999679;28;20045;-70
2022/03/14 11:33:32;;;;;;;13.98;8.23;;;15.80;38.10;;;;;;5003297;28;20083;-70
2022/03/14 11:36:00;;;;;;;13.77;7.90;;;15.90;37.70;;;;;;5004083;28;20571;-70
2022/03/14 11:38:28;;;;;;;11.30;7.22;;;15.90;37.40;;;;;;5001618;28;20025;-69
2022/03/14 11:40:54;;;;;;;8.98;6.55;;;15.90;37.70;;;;;;5009984;28;20040;-69
2022/03/14 11:43:19;;;;;;;12.60;7.32;;;16.10;37.30;;;;;;5001004;28;20382;-70
2022/03/14 11:45:46;;;;;;;10.35;7.40;;;16.10;37.90;;;;;;5007016;28;20046;-70
2022/03/14 11:48:13;;;;;;;10.05;6.93;;;16.00;37.90;;;;;;5003757;28;20692;-69
2022/03/14 11:51:08;;;;;;;10.90;7.53;;;15.80;38.00;;;;;;5009062;28;20033;-70
2022/03/14 11:53:36;;;;;;;10.40;7.45;;;15.50;38.60;;;;;;5009445;28;20475;-70
2022/03/14 11:56:07;;;;;;;11.52;6.82;;;15.60;38.50;;;;;;5012460;28;20030;-70
2022/03/14 11:58:37;;;;;;;14.73;7.30;;;15.70;38.80;;;;;;5010125;28;20097;-70
2022/03/14 12:01:29;;;;;;;11.05;7.50;;;15.70;38.80;;;;;;5005607;28;20050;-70
2022/03/14 12:03:58;;;;;;;11.43;7.68;;;15.80;38.40;;;;;;5014098;28;20032;-69
2022/03/14 12:06:46;;;;;;;11.50;7.78;;;15.90;38.50;;;;;;5006048;28;20571;-70
2022/03/14 12:09:26;;;;;;;10.80;7.28;;;15.60;39.10;;;;;;5007931;28;20021;-70
2022/03/14 12:12:12;;;;;;;12.45;8.38;;;15.90;38.90;;;;;;5009216;28;20083;-69
2022/03/14 12:14:48;;;;;;;14.43;7.60;;;16.00;38.50;;;;;;5015280;28;20044;-70
2022/03/14 12:17:13;;;;;;;11.75;7.18;;;15.80;38.40;;;;;;5001232;28;20033;-70
2022/03/14 12:20:05;;;;;;;9.30;7.10;;;15.40;39.30;;;;;;5007538;28;20025;-70
2022/03/14 12:22:32;;;;;;;10.25;7.22;;;15.20;39.40;;;;;;5005548;28;20049;-70
2022/03/14 12:24:59;;;;;;;10.38;7.07;;;15.30;39.10;;;;;;5013241;28;20025;-70
2022/03/14 12:27:26;;;;;;;11.13;7.68;;;15.30;39.40;;;;;;5003723;28;20053;-69
2022/03/14 12:29:54;;;;;;;12.85;8.32;;;15.20;39.70;;;;;;5010494;28;20013;-70
2022/03/14 12:32:28;;;;;;;11.98;8.27;;;15.20;40.00;;;;;;5007366;28;20070;-70
2022/03/14 12:35:10;;;;;;;12.73;8.63;;;15.30;39.90;;;;;;5010711;28;20083;-69
2022/03/14 12:37:55;;;;;;;11.95;8.38;;;15.30;39.50;;;;;;5009367;28;20029;-69
2022/03/14 12:40:23;;;;;;;12.07;8.40;;;15.40;39.40;;;;;;5005715;28;20029;-69
2022/03/14 12:42:53;;;;;;;16.73;8.48;;;15.40;39.70;;;;;;5012001;28;20032;-69
2022/03/14 12:45:29;;;;;;;13.98;8.90;;;15.60;39.50;;;;;;5008420;28;20061;-70
2022/03/14 12:48:12;;;;;;;12.23;7.82;;;15.80;39.00;;;;;;5007303;28;20061;-70
2022/03/14 12:50:50;;;;;;;14.18;8.55;;;15.60;39.50;;;;;;5008101;28;20018;-70